Time;durP1;ratioP1;P1;durP2;ratioP2;P2;SDS_P1;SDS_P2;PMS_P1;PMS_P2;Temp;Humidity;BMP_temperature;BMP_pressure;BME280_temperature;BME280_humidity;BME280_pressure;Samples;Min_cycle;Max_cycle;Signal;HPM_P1;HPM_P2
2022/09/02 00:00:36;;;;;;;3.28;2.13;;;;;;;;;;4987699;28;20166;-79
2022/09/02 00:03:03;;;;;;;4.80;1.25;;;;;;;;;;4979364;28;20118;-80
2022/09/02 00:05:29;;;;;;;2.72;1.20;;;;;;;;;;4998632;28;20026;-79
2022/09/02 00:07:55;;;;;;;2.63;1.00;;;;;;;;;;4998585;28;20030;-78
2022/09/02 00:10:21;;;;;;;3.45;1.48;;;;;;;;;;4998612;28;20073;-79
2022/09/02 00:12:47;;;;;;;4.13;1.30;;;;;;;;;;4999798;28;20106;-79
2022/09/02 00:15:13;;;;;;;3.45;1.17;;;;;;;;;;4997996;28;20488;-79
2022/09/02 00:17:39;;;;;;;3.38;1.50;;;;;;;;;;5000013;28;20109;-79
2022/09/02 00:20:06;;;;;;;4.70;1.70;;;;;;;;;;4998710;28;20023;-79
2022/09/02 00:22:32;;;;;;;4.22;1.50;;;;;;;;;;4998434;28;20034;-79
2022/09/02 00:24:58;;;;;;;3.63;1.50;;;;;;;;;;4997162;28;20421;-79
2022/09/02 00:27:24;;;;;;;3.50;1.40;;;;;;;;;;4996944;28;20038;-79
2022/09/02 00:29:52;;;;;;;3.20;1.58;;;;;;;;;;4992655;28;20093;-79
2022/09/02 00:32:18;;;;;;;3.88;1.70;;;;;;;;;;4998297;28;20026;-79
2022/09/02 00:34:44;;;;;;;3.42;1.50;;;;;;;;;;4999363;28;20077;-79
2022/09/02 00:37:10;;;;;;;2.90;1.30;;;;;;;;;;4997857;28;20034;-79
2022/09/02 00:39:36;;;;;;;3.28;1.30;;;;;;;;;;4998823;28;20556;-80
2022/09/02 00:42:03;;;;;;;2.55;1.10;;;;;;;;;;4994818;28;20549;-80
2022/09/02 00:44:29;;;;;;;4.43;1.40;;;;;;;;;;4999862;28;20358;-81
2022/09/02 00:46:55;;;;;;;3.55;1.50;;;;;;;;;;4998384;28;20022;-80
2022/09/02 00:49:29;;;;;;;3.50;1.80;;;;;;;;;;4994502;28;20037;-80
2022/09/02 00:52:16;;;;;;;3.53;1.67;;;;;;;;;;4996927;28;20101;-80
2022/09/02 00:54:48;;;;;;;4.20;1.65;;;;;;;;;;5004766;28;20019;-80
2022/09/02 00:57:18;;;;;;;3.58;1.40;;;;;;;;;;4990904;28;20125;-80
2022/09/02 00:59:56;;;;;;;3.60;1.65;;;;;;;;;;4997912;28;20051;-80
2022/09/02 01:02:24;;;;;;;3.63;1.52;;;;;;;;;;5005674;28;20034;-81
2022/09/02 01:04:50;;;;;;;6.40;1.60;;;;;;;;;;5008011;28;20027;-80
2022/09/02 01:07:16;;;;;;;3.80;1.70;;;;;;;;;;5004488;28;20030;-81
2022/09/02 01:09:42;;;;;;;4.07;1.70;;;;;;;;;;5004442;28;20026;-81
2022/09/02 01:12:11;;;;;;;4.30;1.70;;;;;;;;;;5000213;28;20033;-81
2022/09/02 01:14:37;;;;;;;5.97;1.83;;;;;;;;;;5006168;28;20029;-81
2022/09/02 01:17:04;;;;;;;3.78;1.58;;;;;;;;;;5005012;28;20026;-81
2022/09/02 01:19:34;;;;;;;3.10;1.38;;;;;;;;;;5005644;28;20472;-80
2022/09/02 01:22:00;;;;;;;4.95;1.42;;;;;;;;;;4991847;28;20035;-80
2022/09/02 01:24:28;;;;;;;3.72;1.55;;;;;;;;;;4990887;28;20065;-80
2022/09/02 01:26:55;;;;;;;4.57;1.60;;;;;;;;;;5005646;28;20109;-80
2022/09/02 01:29:22;;;;;;;3.83;1.48;;;;;;;;;;5003928;28;20023;-80
2022/09/02 01:31:49;;;;;;;4.10;1.60;;;;;;;;;;5006240;28;20018;-79
2022/09/02 01:34:15;;;;;;;4.15;1.60;;;;;;;;;;5006334;28;20049;-80
2022/09/02 01:36:42;;;;;;;3.55;1.70;;;;;;;;;;5000970;28;20037;-79
2022/09/02 01:39:10;;;;;;;4.05;1.58;;;;;;;;;;5003695;28;20026;-79
2022/09/02 01:41:36;;;;;;;3.42;1.75;;;;;;;;;;5005637;28;20073;-79
2022/09/02 01:44:02;;;;;;;3.63;1.80;;;;;;;;;;5004111;28;20478;-79
2022/09/02 01:46:28;;;;;;;3.22;1.48;;;;;;;;;;5005939;28;20030;-79
2022/09/02 01:48:54;;;;;;;4.20;1.70;;;;;;;;;;5002366;28;20037;-80
2022/09/02 01:51:20;;;;;;;3.22;1.40;;;;;;;;;;5004953;28;20030;-79
2022/09/02 01:53:47;;;;;;;4.38;1.85;;;;;;;;;;5005936;28;20026;-79
2022/09/02 01:56:13;;;;;;;4.70;1.80;;;;;;;;;;5005281;28;20529;-80
2022/09/02 01:58:40;;;;;;;4.55;1.63;;;;;;;;;;4998731;28;21512;-79
2022/09/02 02:01:06;;;;;;;3.35;1.50;;;;;;;;;;5002637;28;20030;-80
2022/09/02 02:03:34;;;;;;;4.13;1.83;;;;;;;;;;4996034;28;20026;-80
2022/09/02 02:06:00;;;;;;;4.15;1.88;;;;;;;;;;4996386;28;20026;-80
2022/09/02 02:08:26;;;;;;;3.45;1.77;;;;;;;;;;4995819;28;20535;-80
2022/09/02 02:10:52;;;;;;;3.72;1.80;;;;;;;;;;4987834;28;20105;-80
2022/09/02 02:13:18;;;;;;;3.80;1.70;;;;;;;;;;4996270;28;20109;-80
2022/09/02 02:15:45;;;;;;;3.85;1.85;;;;;;;;;;4996851;28;20104;-80
2022/09/02 02:18:11;;;;;;;4.75;2.30;;;;;;;;;;4979836;28;20562;-80
2022/09/02 02:20:37;;;;;;;4.10;1.98;;;;;;;;;;4988573;28;20030;-80
2022/09/02 02:23:04;;;;;;;4.60;2.42;;;;;;;;;;4997302;28;20474;-80
2022/09/02 02:25:30;;;;;;;3.70;1.80;;;;;;;;;;4993672;28;20113;-80
2022/09/02 02:27:56;;;;;;;5.65;2.05;;;;;;;;;;4995934;28;20027;-80
2022/09/02 02:30:22;;;;;;;6.88;2.97;;;;;;;;;;4995505;28;20038;-80
2022/09/02 02:32:49;;;;;;;4.82;2.30;;;;;;;;;;4978838;28;20113;-80
2022/09/02 02:35:16;;;;;;;4.25;2.10;;;;;;;;;;4982009;28;20027;-80
2022/09/02 02:37:43;;;;;;;4.68;2.22;;;;;;;;;;4995956;28;20528;-80
2022/09/02 02:40:10;;;;;;;5.25;2.17;;;;;;;;;;4995922;28;20297;-80
2022/09/02 02:42:36;;;;;;;5.65;2.90;;;;;;;;;;4993930;28;20092;-80
2022/09/02 02:45:07;;;;;;;4.88;2.08;;;;;;;;;;4995135;28;20030;-80
2022/09/02 02:47:33;;;;;;;4.53;2.10;;;;;;;;;;4993684;28;20032;-80
2022/09/02 02:49:59;;;;;;;7.40;3.90;;;;;;;;;;4993219;28;20164;-80
2022/09/02 02:52:26;;;;;;;3.75;2.08;;;;;;;;;;4994700;28;20073;-80
2022/09/02 02:54:52;;;;;;;6.63;2.10;;;;;;;;;;4993910;28;20033;-80
2022/09/02 02:57:18;;;;;;;4.65;1.95;;;;;;;;;;4991965;28;20039;-80
2022/09/02 02:59:44;;;;;;;4.95;2.22;;;;;;;;;;4990757;28;20050;-80
2022/09/02 03:02:10;;;;;;;4.22;1.88;;;;;;;;;;4993449;28;20113;-81
2022/09/02 03:04:37;;;;;;;4.00;2.20;;;;;;;;;;4994571;28;20497;-80
2022/09/02 03:07:05;;;;;;;4.07;2.13;;;;;;;;;;4994130;28;20034;-80
2022/09/02 03:09:32;;;;;;;3.45;1.70;;;;;;;;;;4987852;28;20026;-81
2022/09/02 03:11:58;;;;;;;5.22;2.13;;;;;;;;;;4996087;28;20389;-80
2022/09/02 03:14:25;;;;;;;4.63;2.20;;;;;;;;;;4996496;28;20061;-80
2022/09/02 03:16:51;;;;;;;3.78;1.75;;;;;;;;;;4993493;28;20021;-80
2022/09/02 03:19:16;;;;;;;4.32;2.10;;;;;;;;;;4995231;28;20026;-80
2022/09/02 03:21:43;;;;;;;3.83;2.10;;;;;;;;;;4996360;28;20394;-80
2022/09/02 03:24:09;;;;;;;5.07;2.17;;;;;;;;;;4994462;28;20023;-80
2022/09/02 03:26:35;;;;;;;4.05;1.70;;;;;;;;;;4995486;28;20021;-80
2022/09/02 03:29:01;;;;;;;3.83;2.10;;;;;;;;;;4993449;28;20030;-81
2022/09/02 03:31:28;;;;;;;4.95;1.92;;;;;;;;;;4995361;28;20033;-80
2022/09/02 03:33:54;;;;;;;4.57;2.00;;;;;;;;;;4992830;28;20081;-80
2022/09/02 03:36:21;;;;;;;4.43;1.95;;;;;;;;;;4993925;28;20034;-81
2022/09/02 03:38:48;;;;;;;4.10;2.20;;;;;;;;;;4995004;28;20019;-81
2022/09/02 03:41:14;;;;;;;4.00;2.00;;;;;;;;;;4995076;28;20034;-81
2022/09/02 03:43:40;;;;;;;3.97;1.85;;;;;;;;;;4994824;28;20037;-80
2022/09/02 03:46:08;;;;;;;4.25;2.10;;;;;;;;;;4995376;28;20105;-79
2022/09/02 03:48:34;;;;;;;4.85;2.15;;;;;;;;;;4995036;28;20060;-80
2022/09/02 03:51:01;;;;;;;4.07;2.30;;;;;;;;;;4992061;28;20109;-80
2022/09/02 03:53:27;;;;;;;4.07;2.10;;;;;;;;;;4994268;28;20035;-80
2022/09/02 03:55:53;;;;;;;4.95;2.50;;;;;;;;;;4985959;28;20047;-80
2022/09/02 03:58:21;;;;;;;5.18;1.98;;;;;;;;;;4994774;28;20046;-80
2022/09/02 04:00:51;;;;;;;3.88;1.88;;;;;;;;;;4995468;28;20030;-81
2022/09/02 04:03:17;;;;;;;5.80;2.20;;;;;;;;;;4989538;28;20168;-80
2022/09/02 04:05:46;;;;;;;4.40;2.05;;;;;;;;;;4994755;28;20038;-80
2022/09/02 04:08:12;;;;;;;3.75;2.00;;;;;;;;;;4993722;28;20031;-80
2022/09/02 04:10:38;;;;;;;5.65;2.15;;;;;;;;;;4994904;28;20041;-80
2022/09/02 04:13:04;;;;;;;4.03;2.00;;;;;;;;;;4992394;28;20109;-80
2022/09/02 04:15:30;;;;;;;5.07;2.22;;;;;;;;;;4994530;28;20082;-80
2022/09/02 04:17:56;;;;;;;4.93;2.08;;;;;;;;;;4994986;28;20053;-80
2022/09/02 04:20:22;;;;;;;6.75;2.60;;;;;;;;;;4992992;28;20030;-80
2022/09/02 04:22:48;;;;;;;6.45;2.85;;;;;;;;;;4995599;28;20019;-80
2022/09/02 04:25:14;;;;;;;6.80;2.28;;;;;;;;;;4998014;28;20053;-80
2022/09/02 04:27:40;;;;;;;4.45;1.90;;;;;;;;;;4997583;28;20033;-80
2022/09/02 04:30:07;;;;;;;4.25;1.98;;;;;;;;;;4997600;28;20034;-81
2022/09/02 04:32:33;;;;;;;4.28;1.80;;;;;;;;;;4997412;28;20026;-80
2022/09/02 04:34:59;;;;;;;4.03;2.20;;;;;;;;;;4996736;28;20019;-80
2022/09/02 04:37:26;;;;;;;5.60;2.30;;;;;;;;;;4980052;28;20039;-80
2022/09/02 04:39:52;;;;;;;4.00;1.95;;;;;;;;;;4979591;28;20050;-80
2022/09/02 04:42:18;;;;;;;4.15;1.95;;;;;;;;;;4980026;28;20023;-81
2022/09/02 04:44:45;;;;;;;5.53;2.80;;;;;;;;;;4991048;28;20026;-80
2022/09/02 04:47:11;;;;;;;5.13;2.30;;;;;;;;;;4997921;28;20061;-80
2022/09/02 04:49:38;;;;;;;7.55;2.30;;;;;;;;;;4997851;28;20204;-80
2022/09/02 04:52:04;;;;;;;4.70;2.55;;;;;;;;;;4996740;28;20034;-80
2022/09/02 04:54:30;;;;;;;4.80;2.40;;;;;;;;;;4994998;28;20037;-79
2022/09/02 04:56:56;;;;;;;5.10;2.40;;;;;;;;;;5000599;28;20019;-81
2022/09/02 04:59:22;;;;;;;7.32;2.63;;;;;;;;;;4999448;28;20061;-80
2022/09/02 05:01:49;;;;;;;4.45;2.45;;;;;;;;;;5002590;28;20522;-81
2022/09/02 05:04:15;;;;;;;4.22;2.33;;;;;;;;;;5000351;28;20128;-81
2022/09/02 05:06:41;;;;;;;4.65;2.60;;;;;;;;;;4998679;28;20030;-81
2022/09/02 05:09:07;;;;;;;5.40;2.80;;;;;;;;;;4999586;28;20513;-80
2022/09/02 05:11:34;;;;;;;4.10;2.45;;;;;;;;;;4996368;28;20046;-80
2022/09/02 05:14:01;;;;;;;7.45;2.97;;;;;;;;;;4995539;28;20018;-80
2022/09/02 05:16:32;;;;;;;4.53;2.58;;;;;;;;;;4999880;28;20034;-80
2022/09/02 05:18:59;;;;;;;4.50;2.50;;;;;;;;;;4999311;28;20042;-81
2022/09/02 05:21:25;;;;;;;5.40;2.63;;;;;;;;;;4998444;28;20038;-80
2022/09/02 05:23:52;;;;;;;5.38;2.70;;;;;;;;;;4998418;28;20031;-80
2022/09/02 05:26:18;;;;;;;5.53;2.40;;;;;;;;;;4999480;28;20034;-80
2022/09/02 05:28:44;;;;;;;5.95;3.05;;;;;;;;;;4997985;28;20375;-80
2022/09/02 05:31:12;;;;;;;4.50;2.50;;;;;;;;;;4999339;28;20026;-80
2022/09/02 05:33:40;;;;;;;7.32;2.50;;;;;;;;;;4996913;28;20116;-80
2022/09/02 05:36:11;;;;;;;5.50;2.90;;;;;;;;;;4998199;28;20022;-80
2022/09/02 05:38:37;;;;;;;4.28;2.45;;;;;;;;;;4998912;28;20026;-80
2022/09/02 05:41:10;;;;;;;4.60;2.40;;;;;;;;;;4997979;28;20026;-81
2022/09/02 05:43:37;;;;;;;5.50;2.40;;;;;;;;;;4998011;28;20037;-80
2022/09/02 05:46:05;;;;;;;4.38;2.20;;;;;;;;;;4997021;28;20026;-80
2022/09/02 05:51:16;;;;;;;5.70;2.60;;;;;;;;;;4994107;28;20042;-80
2022/09/02 05:53:42;;;;;;;4.60;2.50;;;;;;;;;;4987321;28;20022;-80
2022/09/02 05:56:08;;;;;;;5.45;2.40;;;;;;;;;;4991994;28;20097;-81
2022/09/02 05:58:34;;;;;;;6.03;3.17;;;;;;;;;;4996304;28;20054;-81
2022/09/02 06:01:00;;;;;;;4.45;2.47;;;;;;;;;;5001007;28;20038;-81
2022/09/02 06:03:26;;;;;;;4.85;2.47;;;;;;;;;;5010803;28;20029;-80
2022/09/02 06:05:54;;;;;;;5.35;2.45;;;;;;;;;;4997640;28;20061;-80
2022/09/02 06:08:19;;;;;;;6.15;2.70;;;;;;;;;;4992331;28;20038;-80
2022/09/02 06:10:45;;;;;;;5.18;2.42;;;;;;;;;;4995664;28;20556;-80
2022/09/02 06:13:11;;;;;;;4.55;2.65;;;;;;;;;;4994223;28;20026;-79
2022/09/02 06:15:42;;;;;;;4.75;2.15;;;;;;;;;;4995743;28;20062;-79
2022/09/02 06:18:09;;;;;;;5.30;2.47;;;;;;;;;;4989478;28;20023;-80
2022/09/02 06:20:39;;;;;;;4.63;2.30;;;;;;;;;;4985725;28;20035;-79
2022/09/02 06:23:05;;;;;;;4.35;2.30;;;;;;;;;;4999671;28;20030;-80
2022/09/02 06:25:31;;;;;;;4.80;2.53;;;;;;;;;;4986505;28;20027;-80
2022/09/02 06:27:57;;;;;;;4.18;2.50;;;;;;;;;;4994913;28;20092;-80
2022/09/02 06:30:23;;;;;;;4.50;2.55;;;;;;;;;;4990983;28;20474;-80
2022/09/02 06:32:49;;;;;;;4.78;2.35;;;;;;;;;;4994835;28;20545;-79
2022/09/02 06:35:15;;;;;;;5.40;2.40;;;;;;;;;;4996872;28;20124;-79
2022/09/02 06:37:41;;;;;;;5.35;2.50;;;;;;;;;;4997219;28;20030;-80
2022/09/02 06:40:07;;;;;;;5.40;2.42;;;;;;;;;;4993297;28;20034;-79
2022/09/02 06:42:34;;;;;;;4.57;2.72;;;;;;;;;;4985655;28;20038;-79
2022/09/02 06:45:00;;;;;;;4.40;2.25;;;;;;;;;;4993856;28;20509;-79
2022/09/02 06:47:26;;;;;;;5.10;2.30;;;;;;;;;;4996080;28;20026;-80
2022/09/02 06:49:52;;;;;;;4.50;2.50;;;;;;;;;;4997474;28;20024;-80
2022/09/02 06:52:18;;;;;;;4.38;2.45;;;;;;;;;;5005054;28;20381;-80
2022/09/02 06:54:44;;;;;;;5.50;2.55;;;;;;;;;;4995245;28;20053;-80
2022/09/02 06:57:10;;;;;;;5.05;3.10;;;;;;;;;;4993265;28;20411;-79
2022/09/02 06:59:37;;;;;;;4.55;2.50;;;;;;;;;;4994230;28;20054;-79
2022/09/02 07:02:04;;;;;;;5.47;2.58;;;;;;;;;;4995051;28;20081;-79
2022/09/02 07:07:14;;;;;;;5.68;2.92;;;;;;;;;;4992587;28;20069;-79
2022/09/02 07:09:40;;;;;;;4.70;2.25;;;;;;;;;;4996109;28;20038;-80
2022/09/02 07:12:07;;;;;;;7.22;2.65;;;;;;;;;;4995334;28;20421;-80
2022/09/02 07:14:40;;;;;;;5.72;2.50;;;;;;;;;;4997424;28;20026;-80
2022/09/02 07:17:07;;;;;;;6.38;2.47;;;;;;;;;;4996460;28;20026;-79
2022/09/02 07:19:33;;;;;;;3.95;2.10;;;;;;;;;;4995244;28;20403;-79
2022/09/02 07:22:00;;;;;;;4.38;2.40;;;;;;;;;;4994303;28;20053;-79
2022/09/02 07:24:26;;;;;;;4.30;2.15;;;;;;;;;;4994996;28;20498;-80
2022/09/02 07:26:52;;;;;;;5.63;2.28;;;;;;;;;;4990110;28;20029;-80
2022/09/02 07:29:18;;;;;;;5.68;2.20;;;;;;;;;;4991950;28;20030;-80
2022/09/02 07:31:46;;;;;;;4.72;2.10;;;;;;;;;;4993396;28;20390;-78
2022/09/02 07:34:13;;;;;;;4.97;2.30;;;;;;;;;;4994840;28;20367;-80
2022/09/02 07:36:39;;;;;;;4.50;2.35;;;;;;;;;;4993810;28;20022;-80
2022/09/02 07:39:09;;;;;;;4.22;2.30;;;;;;;;;;4992865;28;20042;-79
2022/09/02 07:41:35;;;;;;;4.93;2.33;;;;;;;;;;4989029;28;20034;-79
2022/09/02 07:44:01;;;;;;;5.43;2.70;;;;;;;;;;4990532;28;20050;-79
2022/09/02 07:46:30;;;;;;;4.53;2.22;;;;;;;;;;4979513;28;20057;-80
2022/09/02 07:48:56;;;;;;;5.20;2.25;;;;;;;;;;4990567;28;20380;-78
2022/09/02 07:51:22;;;;;;;4.65;2.40;;;;;;;;;;4995288;28;20397;-77
2022/09/02 07:53:49;;;;;;;5.63;2.30;;;;;;;;;;4986439;28;20486;-77
2022/09/02 07:56:16;;;;;;;5.18;2.30;;;;;;;;;;4981399;28;20483;-77
2022/09/02 07:58:43;;;;;;;4.80;2.55;;;;;;;;;;4984749;28;20089;-78
2022/09/02 08:01:09;;;;;;;5.70;2.13;;;;;;;;;;4990486;28;20069;-78
2022/09/02 08:03:38;;;;;;;5.35;2.28;;;;;;;;;;4994325;28;20022;-77
2022/09/02 08:06:04;;;;;;;4.80;2.40;;;;;;;;;;4992788;28;20037;-78
2022/09/02 08:08:31;;;;;;;4.45;2.30;;;;;;;;;;4993182;28;20057;-78
2022/09/02 08:10:57;;;;;;;4.00;1.83;;;;;;;;;;5003856;28;20027;-78
2022/09/02 08:13:23;;;;;;;4.32;2.03;;;;;;;;;;4988751;28;20026;-78
2022/09/02 08:15:50;;;;;;;4.85;2.30;;;;;;;;;;4984834;28;20049;-78
2022/09/02 08:18:16;;;;;;;5.93;2.10;;;;;;;;;;4991775;28;20165;-78
2022/09/02 08:20:42;;;;;;;5.82;2.20;;;;;;;;;;4993422;28;20030;-78
2022/09/02 08:23:10;;;;;;;4.32;1.90;;;;;;;;;;4994136;28;20395;-78
2022/09/02 08:25:36;;;;;;;4.38;2.08;;;;;;;;;;4994482;28;20019;-78
2022/09/02 08:28:03;;;;;;;5.03;2.30;;;;;;;;;;4993228;28;20121;-79
2022/09/02 08:30:29;;;;;;;4.25;2.25;;;;;;;;;;4994480;28;20046;-78
2022/09/02 08:32:56;;;;;;;4.75;2.30;;;;;;;;;;4994380;28;20026;-79
2022/09/02 08:35:22;;;;;;;4.63;2.10;;;;;;;;;;4989270;28;20030;-79
2022/09/02 08:37:48;;;;;;;4.57;2.30;;;;;;;;;;4991679;28;20042;-80
2022/09/02 08:40:19;;;;;;;6.10;2.72;;;;;;;;;;4996000;28;20030;-80
2022/09/02 08:42:50;;;;;;;8.07;2.92;;;;;;;;;;4980044;28;20038;-78
2022/09/02 08:45:27;;;;;;;5.90;2.03;;;;;;;;;;4991729;28;20078;-79
2022/09/02 08:48:13;;;;;;;4.82;2.03;;;;;;;;;;4999294;28;20042;-80
2022/09/02 08:50:41;;;;;;;4.82;2.28;;;;;;;;;;4981638;28;20030;-79
2022/09/02 08:53:14;;;;;;;6.35;2.53;;;;;;;;;;4993158;28;20031;-79
2022/09/02 08:55:44;;;;;;;7.90;2.53;;;;;;;;;;4991243;28;20126;-79
2022/09/02 08:58:11;;;;;;;5.50;2.05;;;;;;;;;;4977170;28;20121;-79
2022/09/02 09:00:40;;;;;;;5.10;1.98;;;;;;;;;;4985906;28;20034;-79
2022/09/02 09:03:26;;;;;;;4.10;1.83;;;;;;;;;;4990633;28;20026;-79
2022/09/02 09:05:55;;;;;;;5.05;2.30;;;;;;;;;;4995479;28;20022;-79
2022/09/02 09:08:24;;;;;;;5.43;2.50;;;;;;;;;;4993998;28;20045;-79
2022/09/02 09:11:10;;;;;;;4.90;2.03;;;;;;;;;;4993428;28;20032;-79
2022/09/02 09:13:49;;;;;;;5.43;2.10;;;;;;;;;;4989698;28;20386;-78
2022/09/02 09:16:34;;;;;;;5.20;2.13;;;;;;;;;;4993335;28;20401;-80
2022/09/02 09:19:08;;;;;;;3.72;2.10;;;;;;;;;;4993685;28;20033;-79
2022/09/02 09:21:34;;;;;;;4.32;2.10;;;;;;;;;;4986226;28;20038;-79
2022/09/02 09:24:03;;;;;;;6.60;2.20;;;;;;;;;;4996222;28;20070;-78
2022/09/02 09:26:32;;;;;;;3.92;1.83;;;;;;;;;;4994990;28;20570;-77
2022/09/02 09:28:58;;;;;;;5.32;2.00;;;;;;;;;;4998055;28;20030;-79
2022/09/02 09:31:29;;;;;;;5.95;2.28;;;;;;;;;;5000020;28;20030;-79
2022/09/02 09:34:01;;;;;;;4.90;1.85;;;;;;;;;;4990648;28;20281;-79
2022/09/02 09:36:40;;;;;;;6.68;1.83;;;;;;;;;;4997646;28;20030;-79
2022/09/02 09:39:18;;;;;;;6.13;2.45;;;;;;;;;;5000934;28;20041;-78
2022/09/02 09:41:44;;;;;;;5.53;1.92;;;;;;;;;;4995914;28;20093;-79
2022/09/02 09:44:10;;;;;;;4.90;2.15;;;;;;;;;;4995438;28;20409;-79
2022/09/02 09:46:36;;;;;;;5.03;1.83;;;;;;;;;;4999086;28;20061;-79
2022/09/02 09:49:02;;;;;;;5.35;1.80;;;;;;;;;;5000638;28;20506;-79
2022/09/02 09:51:28;;;;;;;4.40;1.80;;;;;;;;;;4994653;28;20019;-78
2022/09/02 09:54:14;;;;;;;4.50;1.95;;;;;;;;;;4995616;28;20379;-79
2022/09/02 09:56:40;;;;;;;5.95;1.63;;;;;;;;;;4997074;28;20030;-80
2022/09/02 09:59:07;;;;;;;4.72;2.05;;;;;;;;;;4999162;28;20050;-80
2022/09/02 10:01:34;;;;;;;4.10;1.75;;;;;;;;;;4998143;28;20026;-79
2022/09/02 10:04:05;;;;;;;3.63;1.60;;;;;;;;;;4997602;28;20212;-79
2022/09/02 10:06:31;;;;;;;3.22;1.27;;;;;;;;;;4998441;28;20025;-79
2022/09/02 10:08:58;;;;;;;3.53;1.45;;;;;;;;;;4979452;28;20038;-80
2022/09/02 10:11:26;;;;;;;6.30;2.15;;;;;;;;;;4993627;28;20037;-79
2022/09/02 10:13:56;;;;;;;4.53;1.65;;;;;;;;;;4998788;28;20027;-79
2022/09/02 10:16:34;;;;;;;5.07;1.40;;;;;;;;;;4994901;28;20034;-79
2022/09/02 10:19:12;;;;;;;3.42;1.40;;;;;;;;;;4998065;28;20053;-79
2022/09/02 10:21:58;;;;;;;5.00;1.40;;;;;;;;;;4990252;28;20100;-79
2022/09/02 10:24:24;;;;;;;4.95;1.50;;;;;;;;;;4999601;28;20033;-79
2022/09/02 10:26:53;;;;;;;5.55;1.60;;;;;;;;;;4996528;28;20030;-79
2022/09/02 10:29:38;;;;;;;6.22;1.90;;;;;;;;;;4998731;28;20046;-79
2022/09/02 10:32:22;;;;;;;3.75;1.27;;;;;;;;;;4996970;28;20023;-78
2022/09/02 10:34:48;;;;;;;3.75;1.88;;;;;;;;;;5005254;28;20022;-79
2022/09/02 10:37:17;;;;;;;6.20;1.40;;;;;;;;;;5006069;28;20023;-79
2022/09/02 10:39:49;;;;;;;3.53;1.52;;;;;;;;;;5001878;28;20026;-78
2022/09/02 10:42:22;;;;;;;3.42;1.42;;;;;;;;;;5004100;28;20015;-78
2022/09/02 10:45:00;;;;;;;4.47;1.83;;;;;;;;;;4990245;28;20030;-80
2022/09/02 10:47:33;;;;;;;3.60;1.50;;;;;;;;;;5002843;28;20041;-79
2022/09/02 10:50:05;;;;;;;5.05;1.60;;;;;;;;;;4998362;28;20083;-79
2022/09/02 10:52:37;;;;;;;4.25;1.67;;;;;;;;;;5000498;28;20022;-78
2022/09/02 10:55:16;;;;;;;3.80;1.53;;;;;;;;;;4997776;28;20038;-78
2022/09/02 10:57:58;;;;;;;5.55;1.80;;;;;;;;;;4999222;28;20023;-78
2022/09/02 11:00:26;;;;;;;3.67;1.50;;;;;;;;;;5001758;28;20074;-78
2022/09/02 11:03:10;;;;;;;3.80;1.50;;;;;;;;;;5002567;28;20475;-78
2022/09/02 11:06:05;;;;;;;4.47;1.65;;;;;;;;;;5001217;28;20041;-78
2022/09/02 11:08:34;;;;;;;3.70;1.38;;;;;;;;;;4984089;28;20971;-78
2022/09/02 11:11:22;;;;;;;3.40;1.35;;;;;;;;;;4998341;28;20077;-78
2022/09/02 11:13:54;;;;;;;4.95;2.00;;;;;;;;;;4990160;28;20494;-78
2022/09/02 11:16:33;;;;;;;4.00;1.35;;;;;;;;;;4999839;28;20487;-78
2022/09/02 11:19:10;;;;;;;4.85;1.60;;;;;;;;;;5001038;28;20037;-78
2022/09/02 11:21:59;;;;;;;4.15;1.58;;;;;;;;;;4999637;28;20162;-78
2022/09/02 11:24:44;;;;;;;5.18;1.63;;;;;;;;;;4962879;28;20573;-79
2022/09/02 11:27:48;;;;;;;4.22;1.73;;;;;;;;;;4996190;28;20056;-78
2022/09/02 11:30:16;;;;;;;5.95;1.65;;;;;;;;;;4916953;29;20032;-78
2022/09/02 11:32:42;;;;;;;3.08;1.70;;;;;;;;;;4917745;29;20032;-78
2022/09/02 11:35:17;;;;;;;3.95;1.73;;;;;;;;;;4956137;28;20043;-78
2022/09/02 11:37:52;;;;;;;4.15;1.65;;;;;;;;;;4997385;28;20034;-78
2022/09/02 11:40:41;;;;;;;4.57;1.85;;;;;;;;;;4993751;28;20058;-78
2022/09/02 11:43:14;;;;;;;5.05;1.48;;;;;;;;;;4985809;28;20116;-79
2022/09/02 11:45:40;;;;;;;4.20;1.45;;;;;;;;;;4998174;28;20037;-78
2022/09/02 11:48:28;;;;;;;3.70;1.30;;;;;;;;;;4998656;28;20026;-78
2022/09/02 11:50:54;;;;;;;4.45;1.20;;;;;;;;;;4998514;28;20018;-78
2022/09/02 11:53:20;;;;;;;4.00;1.30;;;;;;;;;;4998977;28;20053;-78
2022/09/02 11:56:05;;;;;;;3.78;1.30;;;;;;;;;;4998374;28;20064;-78
2022/09/02 11:58:40;;;;;;;3.72;1.20;;;;;;;;;;4997186;28;20043;-78
2022/09/02 12:01:19;;;;;;;3.15;1.00;;;;;;;;;;4996297;28;20049;-79
2022/09/02 12:03:46;;;;;;;2.60;1.23;;;;;;;;;;4992927;28;20050;-78
2022/09/02 12:06:18;;;;;;;4.50;1.50;;;;;;;;;;4997098;28;20027;-79
2022/09/02 12:08:44;;;;;;;3.47;0.98;;;;;;;;;;4992558;28;20514;-79
2022/09/02 12:11:30;;;;;;;3.53;1.10;;;;;;;;;;4999087;28;20515;-79
2022/09/02 12:13:57;;;;;;;5.10;1.40;;;;;;;;;;4997764;28;20029;-79
2022/09/02 12:16:23;;;;;;;4.03;1.23;;;;;;;;;;4999074;28;20426;-79
2022/09/02 12:18:52;;;;;;;3.65;1.30;;;;;;;;;;4997914;28;20034;-78
2022/09/02 12:21:19;;;;;;;2.78;1.00;;;;;;;;;;4989037;28;20097;-79
2022/09/02 12:23:48;;;;;;;3.17;1.10;;;;;;;;;;4996327;28;20026;-79
2022/09/02 12:26:21;;;;;;;3.47;1.55;;;;;;;;;;4991969;28;20546;-79
2022/09/02 12:28:48;;;;;;;5.07;1.40;;;;;;;;;;4996639;28;20031;-79
2022/09/02 12:31:39;;;;;;;3.35;1.50;;;;;;;;;;4997967;28;20486;-79
2022/09/02 12:34:21;;;;;;;5.28;1.20;;;;;;;;;;4991378;28;20042;-79
2022/09/02 12:36:49;;;;;;;3.42;1.20;;;;;;;;;;4994439;28;20032;-78
2022/09/02 12:39:27;;;;;;;2.95;1.10;;;;;;;;;;4998075;28;20018;-78
2022/09/02 12:42:09;;;;;;;3.65;1.40;;;;;;;;;;4992000;28;20073;-79
2022/09/02 12:44:43;;;;;;;2.90;0.98;;;;;;;;;;4994354;28;20098;-79
2022/09/02 12:47:19;;;;;;;3.10;1.13;;;;;;;;;;5001292;28;20026;-79
2022/09/02 12:50:03;;;;;;;2.75;1.15;;;;;;;;;;5003992;28;20094;-79
2022/09/02 12:52:35;;;;;;;4.72;1.42;;;;;;;;;;5001748;28;20025;-79
2022/09/02 12:55:03;;;;;;;2.88;1.20;;;;;;;;;;4995881;28;20028;-79
2022/09/02 12:57:39;;;;;;;3.75;1.60;;;;;;;;;;5001919;28;20027;-79
2022/09/02 13:00:05;;;;;;;3.65;1.27;;;;;;;;;;4999151;28;20057;-79
2022/09/02 13:02:41;;;;;;;4.88;1.90;;;;;;;;;;4998530;28;20454;-79
2022/09/02 13:05:14;;;;;;;3.20;1.30;;;;;;;;;;5003050;28;20027;-79
2022/09/02 13:07:49;;;;;;;3.30;1.33;;;;;;;;;;4998909;28;20086;-79
2022/09/02 13:10:34;;;;;;;3.17;1.30;;;;;;;;;;4994845;28;20049;-79
2022/09/02 13:13:09;;;;;;;3.20;1.20;;;;;;;;;;5002545;28;20088;-79
2022/09/02 13:15:43;;;;;;;3.60;1.50;;;;;;;;;;5004121;28;20056;-78
2022/09/02 13:18:27;;;;;;;3.45;1.40;;;;;;;;;;5004608;28;20030;-79
2022/09/02 13:20:53;;;;;;;4.65;1.40;;;;;;;;;;4999546;28;20417;-79
2022/09/02 13:23:38;;;;;;;4.78;1.70;;;;;;;;;;5004910;28;20156;-78
2022/09/02 13:26:04;;;;;;;4.60;1.80;;;;;;;;;;5007540;28;20095;-78
2022/09/02 13:28:30;;;;;;;5.68;1.95;;;;;;;;;;5003296;28;20187;-78
2022/09/02 13:31:02;;;;;;;6.00;1.60;;;;;;;;;;5007620;28;20120;-78
2022/09/02 13:33:28;;;;;;;3.92;1.52;;;;;;;;;;4993616;28;20023;-79
2022/09/02 13:35:55;;;;;;;3.70;1.48;;;;;;;;;;5003296;28;20028;-79
2022/09/02 13:38:23;;;;;;;3.80;1.50;;;;;;;;;;5003583;28;20053;-79
2022/09/02 13:40:51;;;;;;;3.83;1.30;;;;;;;;;;5008840;28;20014;-79
2022/09/02 13:43:18;;;;;;;5.38;1.58;;;;;;;;;;5004166;28;20033;-79
2022/09/02 13:45:45;;;;;;;4.47;1.50;;;;;;;;;;4998351;28;20026;-79
2022/09/02 13:48:19;;;;;;;3.80;1.40;;;;;;;;;;5001370;28;20073;-78
2022/09/02 13:50:46;;;;;;;4.57;1.40;;;;;;;;;;5002508;28;20049;-78
2022/09/02 13:53:15;;;;;;;5.00;1.50;;;;;;;;;;4996488;28;20023;-79
2022/09/02 13:55:46;;;;;;;7.38;1.50;;;;;;;;;;4995196;28;20037;-79
2022/09/02 13:58:23;;;;;;;3.35;1.52;;;;;;;;;;5001153;28;20049;-79
2022/09/02 14:00:49;;;;;;;5.25;1.52;;;;;;;;;;4997358;28;20486;-79
2022/09/02 14:03:17;;;;;;;3.97;1.60;;;;;;;;;;5000442;28;20058;-79
2022/09/02 14:05:44;;;;;;;3.35;1.27;;;;;;;;;;5000794;28;20343;-79
2022/09/02 14:08:15;;;;;;;4.47;1.40;;;;;;;;;;5000553;28;20066;-78
2022/09/02 14:10:42;;;;;;;4.68;1.20;;;;;;;;;;5002186;28;20089;-79
2022/09/02 14:13:09;;;;;;;3.65;1.48;;;;;;;;;;5003933;28;20117;-79
2022/09/02 14:15:36;;;;;;;4.22;1.35;;;;;;;;;;5000016;28;20030;-78
2022/09/02 14:18:09;;;;;;;4.70;1.40;;;;;;;;;;5001535;28;20026;-79
2022/09/02 14:20:36;;;;;;;4.88;1.42;;;;;;;;;;5003234;28;20026;-79
2022/09/02 14:23:02;;;;;;;4.15;1.33;;;;;;;;;;4999544;28;20034;-79
2022/09/02 14:25:51;;;;;;;3.85;1.48;;;;;;;;;;4998798;28;20030;-79
2022/09/02 14:28:19;;;;;;;4.38;1.40;;;;;;;;;;4994625;28;20042;-79
2022/09/02 14:30:54;;;;;;;3.97;1.60;;;;;;;;;;5002343;28;20120;-79
2022/09/02 14:33:25;;;;;;;3.55;1.30;;;;;;;;;;4998333;28;20109;-79
2022/09/02 14:36:16;;;;;;;4.67;1.33;;;;;;;;;;4997539;28;20027;-79
2022/09/02 14:38:45;;;;;;;2.95;1.35;;;;;;;;;;4986037;28;20038;-79
2022/09/02 14:41:11;;;;;;;3.75;1.35;;;;;;;;;;5002981;28;20037;-79
2022/09/02 14:43:43;;;;;;;3.85;1.40;;;;;;;;;;4999678;28;20030;-79
2022/09/02 14:46:14;;;;;;;4.68;1.30;;;;;;;;;;4998389;28;20579;-78
2022/09/02 14:48:40;;;;;;;4.28;1.30;;;;;;;;;;4996836;28;20029;-79
2022/09/02 14:51:07;;;;;;;4.53;1.30;;;;;;;;;;5003150;28;20026;-78
2022/09/02 14:53:36;;;;;;;5.47;1.38;;;;;;;;;;5000493;28;20103;-79
2022/09/02 14:56:03;;;;;;;4.03;1.60;;;;;;;;;;4997616;28;20018;-79
2022/09/02 14:58:29;;;;;;;4.10;1.20;;;;;;;;;;4999121;28;20395;-79
2022/09/02 15:00:56;;;;;;;3.47;1.50;;;;;;;;;;4996556;28;20061;-78